Terminal Aerodrome Forecast
Issued by NWS

Home | Current Version | Previous Version | Text Only | Print | Product List | Glossary On
Versions: 1 2 3 4 5 6 7 8 9 10 11 12 13 14 15
000
FTUS41 KBTV 262320
TAFMPV
TAF
KMPV 262320Z 2700/2724 01005KT P6SM OVC080
     FM270600 02008KT P6SM VCSH OVC050 WS020/06035KT
     FM271200 03012G25KT 1 1/2SM -SN BR OVC020
     FM271500 01010G25KT 1/2SM SN FG VV015
     FM272000 04012G24KT 1SM -SN BR OVC010=

USA.gov is the U.S. government's official web portal to all federal, state and local government web resources and services.